createdAt,value
2023-04-02T00:02:33.704Z,99344.66
2023-04-02T00:05:50.935Z,99344.59
2023-04-02T00:08:56.294Z,99353.72
2023-04-02T00:12:00.417Z,99355.84
2023-04-02T00:15:02.209Z,99357.09
2023-04-02T00:18:05.016Z,99355.22
2023-04-02T00:21:34.614Z,99350.81
2023-04-02T00:24:39.273Z,99356.75
2023-04-02T00:27:41.495Z,99353.09
2023-04-02T00:31:01.500Z,99345.28
2023-04-02T00:34:04.926Z,99355.50
2023-04-02T00:37:06.968Z,99357.06
2023-04-02T00:40:25.983Z,99362.09
2023-04-02T00:43:30.872Z,99359.41
2023-04-02T00:46:48.424Z,99366.22
2023-04-02T00:50:01.375Z,99361.84
2023-04-02T00:53:14.877Z,99359.13
2023-04-02T00:56:44.380Z,99371.97
2023-04-02T00:59:57.246Z,99374.41
2023-04-02T01:03:30.459Z,99377.81
2023-04-02T01:06:37.280Z,99380.16
2023-04-02T01:10:08.145Z,99386.28
2023-04-02T01:13:34.892Z,99395.12
2023-04-02T01:16:50.480Z,99398.91
2023-04-02T01:20:10.344Z,99391.87
2023-04-02T01:23:36.572Z,99405.19
2023-04-02T01:26:57.945Z,99390.50
2023-04-02T01:30:01.698Z,99389.53
2023-04-02T01:33:04.071Z,99394.56
2023-04-02T01:36:08.532Z,99395.19
2023-04-02T01:39:24.591Z,99400.97
2023-04-02T01:42:57.212Z,99395.47
2023-04-02T01:46:00.332Z,99402.25
2023-04-02T01:49:11.337Z,99393.34
2023-04-02T01:52:19.394Z,99401.78
2023-04-02T01:55:33.086Z,99403.38
2023-04-02T01:58:35.805Z,99402.38
2023-04-02T02:01:46.213Z,99407.69
2023-04-02T02:04:48.754Z,99405.84
2023-04-02T02:07:52.080Z,99408.47
2023-04-02T02:10:54.011Z,99405.09
2023-04-02T02:14:05.427Z,99411.06
2023-04-02T02:17:13.475Z,99409.34
2023-04-02T02:20:16.344Z,99405.94
2023-04-02T02:23:19.515Z,99398.91
2023-04-02T02:26:23.975Z,99404.06
2023-04-02T02:29:28.482Z,99410.06
2023-04-02T02:32:33.194Z,99405.97
2023-04-02T02:35:54.727Z,99406.19
2023-04-02T02:38:58.377Z,99398.47
2023-04-02T02:42:12.005Z,99403.47
2023-04-02T02:45:18.049Z,99399.06
2023-04-02T02:48:34.245Z,99401.59
2023-04-02T02:51:50.343Z,99398.91
2023-04-02T02:54:59.412Z,99406.31
2023-04-02T02:58:32.450Z,99400.09
2023-04-02T03:01:34.369Z,99402.69
2023-04-02T03:04:36.385Z,99404.44
2023-04-02T03:07:38.430Z,99403.62
2023-04-02T03:10:48.699Z,99408.69
2023-04-02T03:13:54.665Z,99414.13
2023-04-02T03:17:09.111Z,99408.19
2023-04-02T03:20:17.780Z,99401.28
2023-04-02T03:23:46.264Z,99404.00
2023-04-02T03:27:00.758Z,99408.44
2023-04-02T03:30:25.774Z,99411.84
2023-04-02T03:33:29.837Z,99405.59
2023-04-02T03:36:43.804Z,99404.53
2023-04-02T03:40:08.978Z,99407.09
2023-04-02T03:43:26.053Z,99413.91
2023-04-02T03:47:32.844Z,99418.00
2023-04-02T03:51:07.099Z,99425.59
2023-04-02T03:54:16.094Z,99424.66
2023-04-02T03:57:38.599Z,99422.91
2023-04-02T04:00:51.934Z,99428.91
2023-04-02T04:03:56.019Z,99437.59
2023-04-02T04:07:00.762Z,99428.91
2023-04-02T04:10:04.619Z,99435.06
2023-04-02T04:13:12.536Z,99437.59
2023-04-02T04:16:20.089Z,99442.13
2023-04-02T04:19:25.040Z,99439.53
2023-04-02T04:22:33.781Z,99454.16
2023-04-02T04:25:37.311Z,99454.22
2023-04-02T04:28:57.272Z,99456.88
2023-04-02T04:32:16.934Z,99466.50
2023-04-02T04:35:28.753Z,99471.72
2023-04-02T04:38:40.854Z,99476.09
2023-04-02T04:41:43.767Z,99483.84
2023-04-02T04:44:53.662Z,99486.31
2023-04-02T04:48:00.419Z,99488.00
2023-04-02T04:51:37.702Z,99488.94
2023-04-02T04:54:39.856Z,99495.06
2023-04-02T04:57:42.887Z,99494.12
2023-04-02T05:00:56.869Z,99499.16
2023-04-02T05:04:11.151Z,99499.75
2023-04-02T05:07:27.813Z,99497.81
2023-04-02T05:10:42.412Z,99497.66
2023-04-02T05:14:16.483Z,99505.47
2023-04-02T05:17:33.862Z,99510.53
2023-04-02T05:20:48.176Z,99515.81
2023-04-02T05:24:25.032Z,99517.56
2023-04-02T05:27:44.753Z,99530.09
2023-04-02T05:31:28.059Z,99538.22
2023-04-02T05:34:37.375Z,99540.47
2023-04-02T05:37:39.976Z,99533.66
2023-04-02T05:40:46.392Z,99531.78
2023-04-02T05:43:51.336Z,99532.38
2023-04-02T05:47:07.110Z,99525.06
2023-04-02T05:50:09.590Z,99523.72
2023-04-02T05:53:20.936Z,99527.53
2023-04-02T05:56:31.992Z,99538.25
2023-04-02T05:59:48.995Z,99538.41
2023-04-02T06:03:07.403Z,99533.38
2023-04-02T06:06:20.732Z,99532.00
2023-04-02T06:09:22.327Z,99541.13
2023-04-02T06:12:47.542Z,99549.69
2023-04-02T06:15:49.494Z,99544.69
2023-04-02T06:18:51.390Z,99546.41
2023-04-02T06:22:00.629Z,99554.72
2023-04-02T06:25:08.972Z,99552.47
2023-04-02T06:28:17.961Z,99557.34
2023-04-02T06:31:35.988Z,99559.59
2023-04-02T06:34:39.753Z,99554.62
2023-04-02T06:37:46.171Z,99559.16
2023-04-02T06:40:53.253Z,99555.88
2023-04-02T06:44:00.171Z,99555.97
2023-04-02T06:47:13.176Z,99560.72
2023-04-02T06:50:39.712Z,99567.88
2023-04-02T06:53:47.643Z,99561.41
2023-04-02T06:56:54.195Z,99566.78
2023-04-02T06:59:55.941Z,99565.78
2023-04-02T07:03:00.917Z,99570.00
2023-04-02T07:06:03.561Z,99579.41
2023-04-02T07:09:05.637Z,99578.50
2023-04-02T07:12:13.891Z,99574.44
2023-04-02T07:15:19.868Z,99584.63
2023-04-02T07:18:30.790Z,99588.75
2023-04-02T07:21:32.557Z,99585.94
2023-04-02T07:24:34.188Z,99592.34
2023-04-02T07:27:36.331Z,99595.50
2023-04-02T07:30:38.053Z,99591.63
2023-04-02T07:33:41.184Z,99593.44
2023-04-02T07:36:43.775Z,99600.09
2023-04-02T07:39:45.596Z,99602.84
2023-04-02T07:42:47.706Z,99607.25
2023-04-02T07:45:51.490Z,99603.41
2023-04-02T07:48:53.227Z,99615.06
2023-04-02T07:51:54.893Z,99609.63
2023-04-02T07:54:56.564Z,99623.12
2023-04-02T07:57:59.981Z,99625.78
2023-04-02T08:01:04.542Z,99624.03
2023-04-02T08:04:07.902Z,99632.41
2023-04-02T08:07:09.639Z,99631.56
2023-04-02T08:10:12.493Z,99632.22
2023-04-02T08:13:16.228Z,99635.81
2023-04-02T08:16:18.062Z,99630.31
2023-04-02T08:19:20.097Z,99635.37
2023-04-02T08:22:21.756Z,99632.25
2023-04-02T08:25:23.734Z,99630.47
2023-04-02T08:28:25.402Z,99631.34
2023-04-02T08:31:27.618Z,99634.53
2023-04-02T08:34:29.461Z,99638.34
2023-04-02T08:37:31.088Z,99639.88
2023-04-02T08:40:38.978Z,99636.44
2023-04-02T08:43:40.973Z,99640.88
2023-04-02T08:46:55.733Z,99641.25
2023-04-02T08:50:15.387Z,99645.66
2023-04-02T08:53:24.815Z,99649.78
2023-04-02T08:56:37.057Z,99647.44
2023-04-02T08:59:40.901Z,99642.19
2023-04-02T09:02:50.779Z,99642.19
2023-04-02T09:05:53.513Z,99639.03
2023-04-02T09:08:56.941Z,99646.53
2023-04-02T09:12:04.291Z,99651.44
2023-04-02T09:15:18.563Z,99662.94
2023-04-02T09:18:21.004Z,99664.72
2023-04-02T09:21:40.574Z,99661.19
2023-04-02T09:24:42.189Z,99665.75
2023-04-02T09:27:48.827Z,99664.97
2023-04-02T09:31:16.129Z,99666.50
2023-04-02T09:34:36.156Z,99673.03
2023-04-02T09:37:37.784Z,99677.47
2023-04-02T09:40:51.137Z,99678.16
2023-04-02T09:44:12.279Z,99679.72
2023-04-02T09:47:27.307Z,99673.31
2023-04-02T09:50:32.136Z,99678.38
2023-04-02T09:53:36.853Z,99667.75
2023-04-02T09:56:40.550Z,99660.31
2023-04-02T09:59:42.183Z,99665.84
2023-04-02T10:02:45.962Z,99666.91
2023-04-02T10:05:48.843Z,99664.28
2023-04-02T10:08:51.685Z,99665.34
2023-04-02T10:11:55.194Z,99665.94
2023-04-02T10:14:59.689Z,99660.13
2023-04-02T10:18:16.546Z,99662.00
2023-04-02T10:21:38.659Z,99656.03
2023-04-02T10:24:40.713Z,99657.69
2023-04-02T10:27:55.884Z,99650.63
2023-04-02T10:31:11.359Z,99656.25
2023-04-02T10:34:24.883Z,99662.91
2023-04-02T10:37:45.780Z,99659.66
2023-04-02T10:41:03.056Z,99654.62
2023-04-02T10:44:49.708Z,99646.25
2023-04-02T10:47:58.204Z,99642.91
2023-04-02T10:51:02.593Z,99644.91
2023-04-02T10:54:33.873Z,99650.22
2023-04-02T10:57:43.364Z,99642.75
2023-04-02T11:00:47.390Z,99646.03
2023-04-02T11:03:57.818Z,99655.97
2023-04-02T11:07:17.640Z,99661.25
2023-04-02T11:10:21.159Z,99663.06
2023-04-02T11:13:49.302Z,99661.69
2023-04-02T11:16:53.179Z,99655.75
2023-04-02T11:19:56.672Z,99650.16
2023-04-02T11:23:27.970Z,99657.81
2023-04-02T11:26:47.497Z,99651.94
2023-04-02T11:30:08.238Z,99656.22
2023-04-02T11:33:38.414Z,99663.13
2023-04-02T11:36:51.059Z,99657.94
2023-04-02T11:39:55.230Z,99651.88
2023-04-02T11:43:38.156Z,99651.03
2023-04-02T11:46:42.418Z,99646.50
2023-04-02T11:50:01.306Z,99658.66
2023-04-02T11:53:28.622Z,99651.50
2023-04-02T11:56:52.410Z,99662.97
2023-04-02T12:00:08.728Z,99649.69
2023-04-02T12:03:36.765Z,99647.53
2023-04-02T12:06:47.373Z,99655.66
2023-04-02T12:09:55.706Z,99647.88
2023-04-02T12:12:57.516Z,99653.34
2023-04-02T12:15:59.499Z,99655.06
2023-04-02T12:19:01.860Z,99657.41
2023-04-02T12:22:03.808Z,99656.47
2023-04-02T12:25:22.416Z,99656.59
2023-04-02T12:28:25.237Z,99651.06
2023-04-02T12:31:27.532Z,99656.47
2023-04-02T12:34:30.313Z,99650.25
2023-04-02T12:37:32.843Z,99655.12
2023-04-02T12:40:34.818Z,99663.91
2023-04-02T12:43:38.069Z,99654.44
2023-04-02T12:46:41.053Z,99665.03
2023-04-02T12:49:44.091Z,99665.84
2023-04-02T12:52:55.733Z,99657.09
2023-04-02T12:55:57.514Z,99650.94
2023-04-02T12:59:01.414Z,99643.84
2023-04-02T13:02:18.584Z,99642.91
2023-04-02T13:05:56.996Z,99641.19
2023-04-02T13:09:01.727Z,99639.34
2023-04-02T13:12:03.815Z,99641.06
2023-04-02T13:15:20.900Z,99645.50
2023-04-02T13:18:23.480Z,99654.25
2023-04-02T13:21:31.721Z,99658.69
2023-04-02T13:24:34.142Z,99661.12
2023-04-02T13:27:36.001Z,99665.81
2023-04-02T13:30:37.900Z,99667.63
2023-04-02T13:33:39.741Z,99662.38
2023-04-02T13:36:41.412Z,99658.00
2023-04-02T13:39:44.464Z,99659.69
2023-04-02T13:42:47.686Z,99658.91
2023-04-02T13:45:52.440Z,99652.81
2023-04-02T13:48:55.430Z,99663.25
2023-04-02T13:52:03.521Z,99658.06
2023-04-02T13:55:06.163Z,99653.69
2023-04-02T13:58:09.665Z,99649.28
2023-04-02T14:01:12.588Z,99652.75
2023-04-02T14:04:22.352Z,99641.31
2023-04-02T14:07:47.810Z,99648.41
2023-04-02T14:11:28.547Z,99643.84
2023-04-02T14:14:45.098Z,99642.31
2023-04-02T14:18:12.016Z,99653.88
2023-04-02T14:21:32.769Z,99657.87
2023-04-02T14:24:48.862Z,99649.87
2023-04-02T14:28:28.181Z,99652.50
2023-04-02T14:31:34.152Z,99652.97
2023-04-02T14:34:41.773Z,99657.41
2023-04-02T14:37:59.032Z,99665.13
2023-04-02T14:41:10.804Z,99666.94
2023-04-02T14:44:13.392Z,99664.56
2023-04-02T14:47:24.579Z,99667.19
2023-04-02T14:50:41.431Z,99677.12
2023-04-02T14:54:15.364Z,99678.78
2023-04-02T14:57:26.451Z,99671.84
2023-04-02T15:00:44.243Z,99679.03
2023-04-02T15:03:55.081Z,99683.44
2023-04-02T15:07:03.259Z,99686.91
2023-04-02T15:10:20.829Z,99687.72
2023-04-02T15:13:28.820Z,99692.09
2023-04-02T15:16:33.156Z,99699.09
2023-04-02T15:19:35.193Z,99697.16
2023-04-02T15:23:03.800Z,99719.75
2023-04-02T15:26:20.315Z,99737.84
2023-04-02T15:29:37.196Z,99740.88
2023-04-02T15:32:40.890Z,99748.53
2023-04-02T15:35:58.416Z,99755.19
2023-04-02T15:39:28.535Z,99756.81
2023-04-02T15:42:46.171Z,99771.28
2023-04-02T15:46:07.944Z,99774.31
2023-04-02T15:49:26.441Z,99783.09
2023-04-02T15:52:47.375Z,99793.31
2023-04-02T15:56:11.576Z,99796.91
2023-04-02T15:59:19.412Z,99805.56
2023-04-02T16:02:51.728Z,99811.59
2023-04-02T16:06:17.171Z,99817.00
2023-04-02T16:09:47.948Z,99820.19
2023-04-02T16:12:52.667Z,99829.25
2023-04-02T16:16:22.808Z,99828.63
2023-04-02T16:19:40.018Z,99831.50
2023-04-02T16:23:00.018Z,99845.72
2023-04-02T16:26:24.369Z,99840.50
2023-04-02T16:29:37.967Z,99834.91
2023-04-02T16:33:00.306Z,99838.09
2023-04-02T16:36:46.468Z,99834.53
2023-04-02T16:39:55.080Z,99839.16
2023-04-02T16:43:07.652Z,99834.53
2023-04-02T16:46:38.164Z,99839.59
2023-04-02T16:49:48.864Z,99836.34
2023-04-02T16:53:35.492Z,99828.31
2023-04-02T16:56:53.228Z,99829.88
2023-04-02T17:00:36.706Z,99824.94
2023-04-02T17:04:04.111Z,99839.63
2023-04-02T17:07:18.577Z,99837.28
2023-04-02T17:10:31.388Z,99838.25
2023-04-02T17:14:06.468Z,99829.62
2023-04-02T17:17:15.198Z,99830.81
2023-04-02T17:20:25.218Z,99841.91
2023-04-02T17:23:30.475Z,99843.38
2023-04-02T17:26:38.011Z,99842.47
2023-04-02T17:29:42.667Z,99851.13
2023-04-02T17:32:45.486Z,99851.75
2023-04-02T17:36:06.643Z,99854.34
2023-04-02T17:39:36.215Z,99862.59
2023-04-02T17:43:07.653Z,99863.25
2023-04-02T17:46:35.490Z,99866.75
2023-04-02T17:50:15.347Z,99886.03
2023-04-02T17:53:39.644Z,99885.16
2023-04-02T17:57:29.961Z,99903.03
2023-04-02T18:01:03.104Z,99906.31
2023-04-02T18:04:28.674Z,99912.41
2023-04-02T18:07:55.053Z,99916.41
2023-04-02T18:11:01.073Z,99922.13
2023-04-02T18:14:11.863Z,99925.66
2023-04-02T18:17:26.502Z,99928.84
2023-04-02T18:20:52.513Z,99943.13
2023-04-02T18:23:54.992Z,99954.59
2023-04-02T18:26:58.265Z,99961.56
2023-04-02T18:30:04.325Z,99964.94
2023-04-02T18:33:45.205Z,99974.28
2023-04-02T18:37:09.934Z,99979.41
2023-04-02T18:40:39.686Z,99983.56
2023-04-02T18:44:02.672Z,99986.84
2023-04-02T18:47:30.599Z,99988.44
2023-04-02T18:50:44.966Z,99990.62
2023-04-02T18:53:49.780Z,99992.59
2023-04-02T18:56:52.361Z,99996.78
2023-04-02T19:00:03.207Z,100006.81
2023-04-02T19:03:37.405Z,100023.31
2023-04-02T19:06:45.028Z,100028.75
2023-04-02T19:09:50.045Z,100034.63
2023-04-02T19:12:52.656Z,100042.50
2023-04-02T19:15:56.469Z,100048.19
2023-04-02T19:19:11.742Z,100066.69
2023-04-02T19:22:30.816Z,100063.09
2023-04-02T19:25:51.818Z,100062.47
2023-04-02T19:29:25.730Z,100063.28
2023-04-02T19:33:04.249Z,100067.94
2023-04-02T19:36:28.254Z,100069.25
2023-04-02T19:39:58.070Z,100081.50
2023-04-02T19:43:03.346Z,100076.56
2023-04-02T19:46:11.182Z,100080.28
2023-04-02T19:49:23.278Z,100084.41
2023-04-02T19:52:26.514Z,100084.91
2023-04-02T19:55:29.613Z,100094.34
2023-04-02T19:58:35.046Z,100092.78
2023-04-02T20:01:37.614Z,100093.84
2023-04-02T20:04:40.217Z,100100.66
2023-04-02T20:07:42.729Z,100101.84
2023-04-02T20:10:45.979Z,100110.12
2023-04-02T20:13:52.517Z,100115.37
2023-04-02T20:16:55.297Z,100122.75
2023-04-02T20:19:57.900Z,100127.81
2023-04-02T20:23:02.440Z,100127.84
2023-04-02T20:26:06.280Z,100127.88
2023-04-02T20:29:08.849Z,100133.41
2023-04-02T20:32:11.066Z,100133.53
2023-04-02T20:35:13.740Z,100129.56
2023-04-02T20:38:16.037Z,100136.03
2023-04-02T20:41:19.465Z,100145.97
2023-04-02T20:44:22.058Z,100140.66
2023-04-02T20:47:23.916Z,100144.59
2023-04-02T20:50:25.852Z,100150.75
2023-04-02T20:53:32.980Z,100150.19
2023-04-02T20:56:34.857Z,100148.59
2023-04-02T20:59:36.541Z,100156.28
2023-04-02T21:02:38.328Z,100160.41
2023-04-02T21:05:44.720Z,100159.16
2023-04-02T21:08:47.660Z,100157.69
2023-04-02T21:11:49.966Z,100160.13
2023-04-02T21:14:57.069Z,100152.87
2023-04-02T21:17:58.867Z,100157.88
2023-04-02T21:21:03.226Z,100162.94
2023-04-02T21:24:07.357Z,100167.62
2023-04-02T21:27:09.015Z,100164.06
2023-04-02T21:30:11.238Z,100167.06
2023-04-02T21:33:12.950Z,100172.94
2023-04-02T21:36:20.029Z,100175.53
2023-04-02T21:39:23.860Z,100174.12
2023-04-02T21:42:26.240Z,100177.34
2023-04-02T21:45:28.335Z,100182.09
2023-04-02T21:48:31.538Z,100181.91
2023-04-02T21:51:34.428Z,100190.41
2023-04-02T21:54:36.090Z,100185.94
2023-04-02T21:57:37.961Z,100190.00
2023-04-02T22:00:39.715Z,100191.97
2023-04-02T22:03:41.408Z,100188.31
2023-04-02T22:06:44.380Z,100187.53
2023-04-02T22:09:46.000Z,100182.97
2023-04-02T22:12:47.664Z,100189.84
2023-04-02T22:15:49.437Z,100198.59
2023-04-02T22:18:52.605Z,100203.63
2023-04-02T22:21:54.308Z,100208.22
2023-04-02T22:24:56.470Z,100212.78
2023-04-02T22:27:58.158Z,100212.91
2023-04-02T22:31:20.626Z,100211.31
2023-04-02T22:34:22.372Z,100220.50
2023-04-02T22:37:24.255Z,100223.59
2023-04-02T22:40:25.997Z,100223.59
2023-04-02T22:43:27.759Z,100226.63
2023-04-02T22:46:30.413Z,100228.72
2023-04-02T22:49:32.403Z,100226.41
2023-04-02T22:52:34.041Z,100239.63
2023-04-02T22:55:35.939Z,100237.44
2023-04-02T22:58:38.401Z,100233.91
2023-04-02T23:01:40.877Z,100238.84
2023-04-02T23:04:42.860Z,100245.06
2023-04-02T23:07:44.560Z,100248.53
2023-04-02T23:10:46.349Z,100247.34
2023-04-02T23:13:50.582Z,100248.78
2023-04-02T23:16:52.245Z,100254.84
2023-04-02T23:19:53.856Z,100247.84
2023-04-02T23:22:55.755Z,100253.28
2023-04-02T23:26:18.885Z,100261.31
2023-04-02T23:29:20.529Z,100267.50
2023-04-02T23:32:22.762Z,100256.19
2023-04-02T23:35:24.698Z,100258.78
2023-04-02T23:38:27.070Z,100268.84
2023-04-02T23:41:30.510Z,100262.19
2023-04-02T23:44:32.249Z,100273.12
2023-04-02T23:47:33.934Z,100275.59
2023-04-02T23:50:35.977Z,100273.44
2023-04-02T23:53:37.756Z,100275.81
2023-04-02T23:56:39.967Z,100276.62
2023-04-02T23:59:41.706Z,100284.06
